sensor_id;sensor_type;location;lat;lon;timestamp;P1;durP1;ratioP1;P2;durP2;ratioP2
8413;SDS011;4244;48.684;9.028;2024-01-30T00:00:34;5.57;;;3.07;;
8413;SDS011;4244;48.684;9.028;2024-01-30T00:03:00;4.30;;;2.67;;
8413;SDS011;4244;48.684;9.028;2024-01-30T00:05:26;5.40;;;4.03;;
8413;SDS011;4244;48.684;9.028;2024-01-30T00:07:52;5.70;;;5.20;;
8413;SDS011;4244;48.684;9.028;2024-01-30T00:10:18;6.93;;;6.00;;
8413;SDS011;4244;48.684;9.028;2024-01-30T00:12:45;5.60;;;5.10;;
8413;SDS011;4244;48.684;9.028;2024-01-30T00:15:11;7.63;;;6.27;;
8413;SDS011;4244;48.684;9.028;2024-01-30T00:17:37;6.03;;;5.47;;
8413;SDS011;4244;48.684;9.028;2024-01-30T00:20:02;6.00;;;3.97;;
8413;SDS011;4244;48.684;9.028;2024-01-30T00:22:32;6.10;;;4.00;;
8413;SDS011;4244;48.684;9.028;2024-01-30T00:24:57;8.37;;;5.10;;
8413;SDS011;4244;48.684;9.028;2024-01-30T00:27:23;5.30;;;4.03;;
8413;SDS011;4244;48.684;9.028;2024-01-30T00:29:49;5.20;;;4.50;;
8413;SDS011;4244;48.684;9.028;2024-01-30T00:32:14;5.80;;;4.23;;
8413;SDS011;4244;48.684;9.028;2024-01-30T00:34:41;5.10;;;3.73;;
8413;SDS011;4244;48.684;9.028;2024-01-30T00:37:07;4.63;;;4.10;;
8413;SDS011;4244;48.684;9.028;2024-01-30T00:39:32;6.13;;;4.83;;
8413;SDS011;4244;48.684;9.028;2024-01-30T00:41:58;5.90;;;5.10;;
8413;SDS011;4244;48.684;9.028;2024-01-30T00:44:24;5.80;;;5.30;;
8413;SDS011;4244;48.684;9.028;2024-01-30T00:46:49;5.87;;;5.27;;
8413;SDS011;4244;48.684;9.028;2024-01-30T00:49:15;6.30;;;5.70;;
8413;SDS011;4244;48.684;9.028;2024-01-30T00:51:41;6.70;;;6.03;;
8413;SDS011;4244;48.684;9.028;2024-01-30T00:54:06;6.70;;;6.03;;
8413;SDS011;4244;48.684;9.028;2024-01-30T00:56:32;6.60;;;6.00;;
8413;SDS011;4244;48.684;9.028;2024-01-30T00:58:58;6.70;;;6.00;;
8413;SDS011;4244;48.684;9.028;2024-01-30T01:01:24;7.43;;;6.77;;
8413;SDS011;4244;48.684;9.028;2024-01-30T01:03:49;7.30;;;5.90;;
8413;SDS011;4244;48.684;9.028;2024-01-30T01:06:15;7.00;;;6.30;;
8413;SDS011;4244;48.684;9.028;2024-01-30T01:08:40;7.10;;;6.40;;
8413;SDS011;4244;48.684;9.028;2024-01-30T01:11:06;7.00;;;6.30;;
8413;SDS011;4244;48.684;9.028;2024-01-30T01:13:31;7.20;;;6.50;;
8413;SDS011;4244;48.684;9.028;2024-01-30T01:15:57;7.13;;;6.27;;
8413;SDS011;4244;48.684;9.028;2024-01-30T01:18:22;7.87;;;6.83;;
8413;SDS011;4244;48.684;9.028;2024-01-30T01:20:48;6.80;;;6.13;;
8413;SDS011;4244;48.684;9.028;2024-01-30T01:23:14;8.10;;;6.53;;
8413;SDS011;4244;48.684;9.028;2024-01-30T01:25:40;7.73;;;6.67;;
8413;SDS011;4244;48.684;9.028;2024-01-30T01:28:05;8.10;;;7.30;;
8413;SDS011;4244;48.684;9.028;2024-01-30T01:30:31;6.37;;;5.77;;
8413;SDS011;4244;48.684;9.028;2024-01-30T01:32:56;6.90;;;6.20;;
8413;SDS011;4244;48.684;9.028;2024-01-30T01:35:26;6.87;;;6.10;;
8413;SDS011;4244;48.684;9.028;2024-01-30T01:37:52;6.80;;;6.00;;
8413;SDS011;4244;48.684;9.028;2024-01-30T01:40:23;7.10;;;6.40;;
8413;SDS011;4244;48.684;9.028;2024-01-30T01:42:49;6.57;;;5.97;;
8413;SDS011;4244;48.684;9.028;2024-01-30T01:45:17;6.47;;;5.80;;
8413;SDS011;4244;48.684;9.028;2024-01-30T01:47:43;6.40;;;5.80;;
8413;SDS011;4244;48.684;9.028;2024-01-30T01:50:11;7.60;;;6.30;;
8413;SDS011;4244;48.684;9.028;2024-01-30T01:52:40;7.00;;;6.30;;
8413;SDS011;4244;48.684;9.028;2024-01-30T01:55:06;7.57;;;6.37;;
8413;SDS011;4244;48.684;9.028;2024-01-30T01:57:33;6.57;;;5.97;;
8413;SDS011;4244;48.684;9.028;2024-01-30T01:59:58;6.63;;;5.93;;
8413;SDS011;4244;48.684;9.028;2024-01-30T02:02:24;6.70;;;5.97;;
8413;SDS011;4244;48.684;9.028;2024-01-30T02:04:52;6.87;;;5.83;;
8413;SDS011;4244;48.684;9.028;2024-01-30T02:07:17;7.13;;;6.43;;
8413;SDS011;4244;48.684;9.028;2024-01-30T02:09:43;7.20;;;6.50;;
8413;SDS011;4244;48.684;9.028;2024-01-30T02:12:08;7.13;;;6.40;;
8413;SDS011;4244;48.684;9.028;2024-01-30T02:14:43;6.87;;;6.20;;
8413;SDS011;4244;48.684;9.028;2024-01-30T02:17:13;7.40;;;6.60;;
8413;SDS011;4244;48.684;9.028;2024-01-30T02:19:43;7.40;;;6.40;;
8413;SDS011;4244;48.684;9.028;2024-01-30T02:22:09;7.70;;;7.00;;
8413;SDS011;4244;48.684;9.028;2024-01-30T02:24:35;6.60;;;5.30;;
8413;SDS011;4244;48.684;9.028;2024-01-30T02:27:00;6.83;;;6.13;;
8413;SDS011;4244;48.684;9.028;2024-01-30T02:29:26;6.53;;;5.37;;
8413;SDS011;4244;48.684;9.028;2024-01-30T02:31:51;7.23;;;5.77;;
8413;SDS011;4244;48.684;9.028;2024-01-30T02:34:18;6.73;;;6.10;;
8413;SDS011;4244;48.684;9.028;2024-01-30T02:36:44;7.33;;;6.27;;
8413;SDS011;4244;48.684;9.028;2024-01-30T02:39:10;7.00;;;6.30;;
8413;SDS011;4244;48.684;9.028;2024-01-30T02:41:36;6.70;;;6.07;;
8413;SDS011;4244;48.684;9.028;2024-01-30T02:44:02;7.13;;;6.10;;
8413;SDS011;4244;48.684;9.028;2024-01-30T02:46:28;8.10;;;7.30;;
8413;SDS011;4244;48.684;9.028;2024-01-30T02:48:54;6.40;;;5.80;;
8413;SDS011;4244;48.684;9.028;2024-01-30T02:51:19;8.00;;;6.20;;
8413;SDS011;4244;48.684;9.028;2024-01-30T02:53:45;6.37;;;5.77;;
8413;SDS011;4244;48.684;9.028;2024-01-30T02:56:10;7.60;;;5.70;;
8413;SDS011;4244;48.684;9.028;2024-01-30T02:58:37;7.10;;;6.40;;
8413;SDS011;4244;48.684;9.028;2024-01-30T03:01:02;7.30;;;6.60;;
8413;SDS011;4244;48.684;9.028;2024-01-30T03:03:28;6.70;;;5.83;;
8413;SDS011;4244;48.684;9.028;2024-01-30T03:05:55;7.80;;;6.80;;
8413;SDS011;4244;48.684;9.028;2024-01-30T03:08:21;6.77;;;5.93;;
8413;SDS011;4244;48.684;9.028;2024-01-30T03:10:46;6.43;;;5.80;;
8413;SDS011;4244;48.684;9.028;2024-01-30T03:13:12;7.10;;;6.07;;
8413;SDS011;4244;48.684;9.028;2024-01-30T03:15:38;6.50;;;5.90;;
8413;SDS011;4244;48.684;9.028;2024-01-30T03:18:03;7.30;;;6.50;;
8413;SDS011;4244;48.684;9.028;2024-01-30T03:20:30;7.50;;;6.43;;
8413;SDS011;4244;48.684;9.028;2024-01-30T03:22:55;5.40;;;4.80;;
8413;SDS011;4244;48.684;9.028;2024-01-30T03:25:21;6.47;;;5.50;;
8413;SDS011;4244;48.684;9.028;2024-01-30T03:27:46;6.60;;;5.90;;
8413;SDS011;4244;48.684;9.028;2024-01-30T03:30:12;6.30;;;5.70;;
8413;SDS011;4244;48.684;9.028;2024-01-30T03:32:38;7.03;;;6.33;;
8413;SDS011;4244;48.684;9.028;2024-01-30T03:35:03;6.93;;;6.33;;
8413;SDS011;4244;48.684;9.028;2024-01-30T03:37:29;7.97;;;6.23;;
8413;SDS011;4244;48.684;9.028;2024-01-30T03:39:55;8.43;;;6.17;;
8413;SDS011;4244;48.684;9.028;2024-01-30T03:42:20;7.10;;;5.43;;
8413;SDS011;4244;48.684;9.028;2024-01-30T03:44:47;7.70;;;6.30;;
8413;SDS011;4244;48.684;9.028;2024-01-30T03:47:13;7.13;;;6.43;;
8413;SDS011;4244;48.684;9.028;2024-01-30T03:49:38;7.27;;;6.50;;
8413;SDS011;4244;48.684;9.028;2024-01-30T03:52:04;6.70;;;6.00;;
8413;SDS011;4244;48.684;9.028;2024-01-30T03:54:30;7.30;;;6.60;;
8413;SDS011;4244;48.684;9.028;2024-01-30T03:56:56;8.03;;;6.57;;
8413;SDS011;4244;48.684;9.028;2024-01-30T03:59:21;7.33;;;6.30;;
8413;SDS011;4244;48.684;9.028;2024-01-30T04:01:49;7.63;;;6.93;;
8413;SDS011;4244;48.684;9.028;2024-01-30T04:04:16;6.60;;;6.00;;
8413;SDS011;4244;48.684;9.028;2024-01-30T04:06:42;7.23;;;6.47;;
8413;SDS011;4244;48.684;9.028;2024-01-30T04:09:08;7.70;;;6.50;;
8413;SDS011;4244;48.684;9.028;2024-01-30T04:11:34;8.30;;;6.37;;
8413;SDS011;4244;48.684;9.028;2024-01-30T04:14:00;7.70;;;6.70;;
8413;SDS011;4244;48.684;9.028;2024-01-30T04:16:26;7.50;;;6.67;;
8413;SDS011;4244;48.684;9.028;2024-01-30T04:18:51;7.70;;;6.00;;
8413;SDS011;4244;48.684;9.028;2024-01-30T04:21:17;8.43;;;7.00;;
8413;SDS011;4244;48.684;9.028;2024-01-30T04:23:43;9.47;;;7.47;;
8413;SDS011;4244;48.684;9.028;2024-01-30T04:26:08;7.83;;;6.80;;
8413;SDS011;4244;48.684;9.028;2024-01-30T04:28:34;9.43;;;6.73;;
8413;SDS011;4244;48.684;9.028;2024-01-30T04:31:00;8.00;;;5.90;;
8413;SDS011;4244;48.684;9.028;2024-01-30T04:33:26;9.00;;;7.20;;
8413;SDS011;4244;48.684;9.028;2024-01-30T04:35:52;7.00;;;6.30;;
8413;SDS011;4244;48.684;9.028;2024-01-30T04:38:17;6.83;;;6.13;;
8413;SDS011;4244;48.684;9.028;2024-01-30T04:40:43;8.60;;;6.33;;
8413;SDS011;4244;48.684;9.028;2024-01-30T04:43:08;8.63;;;7.37;;
8413;SDS011;4244;48.684;9.028;2024-01-30T04:45:34;7.47;;;6.67;;
8413;SDS011;4244;48.684;9.028;2024-01-30T04:47:59;8.03;;;7.23;;
8413;SDS011;4244;48.684;9.028;2024-01-30T04:50:25;8.30;;;7.50;;
8413;SDS011;4244;48.684;9.028;2024-01-30T04:52:51;8.40;;;7.50;;
8413;SDS011;4244;48.684;9.028;2024-01-30T04:55:17;8.03;;;7.20;;
8413;SDS011;4244;48.684;9.028;2024-01-30T04:57:43;10.07;;;8.37;;
8413;SDS011;4244;48.684;9.028;2024-01-30T05:00:08;7.80;;;7.03;;
8413;SDS011;4244;48.684;9.028;2024-01-30T05:02:34;8.30;;;7.50;;
8413;SDS011;4244;48.684;9.028;2024-01-30T05:05:00;8.30;;;7.50;;
8413;SDS011;4244;48.684;9.028;2024-01-30T05:07:26;8.77;;;7.87;;
8413;SDS011;4244;48.684;9.028;2024-01-30T05:09:51;8.03;;;7.23;;
8413;SDS011;4244;48.684;9.028;2024-01-30T05:12:17;10.53;;;7.77;;
8413;SDS011;4244;48.684;9.028;2024-01-30T05:14:43;7.83;;;7.03;;
8413;SDS011;4244;48.684;9.028;2024-01-30T05:17:08;10.07;;;7.70;;
8413;SDS011;4244;48.684;9.028;2024-01-30T05:19:35;7.27;;;6.60;;
8413;SDS011;4244;48.684;9.028;2024-01-30T05:22:01;7.10;;;6.40;;
8413;SDS011;4244;48.684;9.028;2024-01-30T05:24:26;7.17;;;6.47;;
8413;SDS011;4244;48.684;9.028;2024-01-30T05:26:52;7.20;;;6.50;;
8413;SDS011;4244;48.684;9.028;2024-01-30T05:29:18;7.07;;;6.37;;
8413;SDS011;4244;48.684;9.028;2024-01-30T05:31:43;7.53;;;6.80;;
8413;SDS011;4244;48.684;9.028;2024-01-30T05:34:09;7.47;;;6.67;;
8413;SDS011;4244;48.684;9.028;2024-01-30T05:36:35;9.63;;;6.40;;
8413;SDS011;4244;48.684;9.028;2024-01-30T05:39:00;7.00;;;6.33;;
8413;SDS011;4244;48.684;9.028;2024-01-30T05:41:26;6.10;;;5.13;;
8413;SDS011;4244;48.684;9.028;2024-01-30T05:43:52;5.57;;;5.07;;
8413;SDS011;4244;48.684;9.028;2024-01-30T05:46:18;7.77;;;6.23;;
8413;SDS011;4244;48.684;9.028;2024-01-30T05:48:43;6.90;;;6.20;;
8413;SDS011;4244;48.684;9.028;2024-01-30T05:51:09;7.13;;;6.20;;
8413;SDS011;4244;48.684;9.028;2024-01-30T05:53:35;6.30;;;5.70;;
8413;SDS011;4244;48.684;9.028;2024-01-30T05:56:03;5.53;;;4.97;;
8413;SDS011;4244;48.684;9.028;2024-01-30T05:58:29;6.60;;;5.90;;
8413;SDS011;4244;48.684;9.028;2024-01-30T06:00:56;5.80;;;5.30;;
8413;SDS011;4244;48.684;9.028;2024-01-30T06:03:22;7.20;;;5.53;;
8413;SDS011;4244;48.684;9.028;2024-01-30T06:05:48;6.27;;;5.03;;
8413;SDS011;4244;48.684;9.028;2024-01-30T06:08:13;9.33;;;6.60;;
8413;SDS011;4244;48.684;9.028;2024-01-30T06:10:39;6.13;;;5.47;;
8413;SDS011;4244;48.684;9.028;2024-01-30T06:13:05;6.53;;;5.90;;
8413;SDS011;4244;48.684;9.028;2024-01-30T06:15:31;8.07;;;6.40;;
8413;SDS011;4244;48.684;9.028;2024-01-30T06:17:57;6.60;;;6.00;;
8413;SDS011;4244;48.684;9.028;2024-01-30T06:20:23;5.87;;;5.10;;
8413;SDS011;4244;48.684;9.028;2024-01-30T06:22:49;7.53;;;6.70;;
8413;SDS011;4244;48.684;9.028;2024-01-30T06:25:14;7.00;;;5.87;;
8413;SDS011;4244;48.684;9.028;2024-01-30T06:27:41;6.60;;;6.00;;
8413;SDS011;4244;48.684;9.028;2024-01-30T06:30:07;7.43;;;6.73;;
8413;SDS011;4244;48.684;9.028;2024-01-30T06:32:33;8.53;;;6.80;;
8413;SDS011;4244;48.684;9.028;2024-01-30T06:35:00;6.73;;;6.13;;
8413;SDS011;4244;48.684;9.028;2024-01-30T06:37:26;8.83;;;6.53;;
8413;SDS011;4244;48.684;9.028;2024-01-30T06:39:52;6.57;;;5.97;;
8413;SDS011;4244;48.684;9.028;2024-01-30T06:42:18;7.50;;;6.70;;
8413;SDS011;4244;48.684;9.028;2024-01-30T06:44:44;7.70;;;7.00;;
8413;SDS011;4244;48.684;9.028;2024-01-30T06:47:09;7.30;;;6.60;;
8413;SDS011;4244;48.684;9.028;2024-01-30T06:49:35;7.43;;;6.73;;
8413;SDS011;4244;48.684;9.028;2024-01-30T06:52:04;8.70;;;7.43;;
8413;SDS011;4244;48.684;9.028;2024-01-30T06:54:31;7.20;;;5.97;;
8413;SDS011;4244;48.684;9.028;2024-01-30T06:56:57;8.00;;;6.80;;
8413;SDS011;4244;48.684;9.028;2024-01-30T06:59:23;8.03;;;7.23;;
8413;SDS011;4244;48.684;9.028;2024-01-30T07:01:49;8.10;;;7.20;;
8413;SDS011;4244;48.684;9.028;2024-01-30T07:04:14;8.33;;;7.47;;
8413;SDS011;4244;48.684;9.028;2024-01-30T07:06:41;9.07;;;8.10;;
8413;SDS011;4244;48.684;9.028;2024-01-30T07:09:06;9.50;;;8.50;;
8413;SDS011;4244;48.684;9.028;2024-01-30T07:11:33;9.13;;;8.17;;
8413;SDS011;4244;48.684;9.028;2024-01-30T07:13:59;6.67;;;3.63;;
8413;SDS011;4244;48.684;9.028;2024-01-30T07:16:25;3.83;;;3.10;;
8413;SDS011;4244;48.684;9.028;2024-01-30T07:18:50;4.10;;;3.20;;
8413;SDS011;4244;48.684;9.028;2024-01-30T07:21:16;6.80;;;3.40;;
8413;SDS011;4244;48.684;9.028;2024-01-30T07:23:42;4.60;;;3.90;;
8413;SDS011;4244;48.684;9.028;2024-01-30T07:26:08;5.00;;;3.70;;
8413;SDS011;4244;48.684;9.028;2024-01-30T07:28:34;4.33;;;3.87;;
8413;SDS011;4244;48.684;9.028;2024-01-30T07:31:00;7.60;;;4.30;;
8413;SDS011;4244;48.684;9.028;2024-01-30T07:33:26;5.90;;;4.13;;
8413;SDS011;4244;48.684;9.028;2024-01-30T07:35:52;6.60;;;5.10;;
8413;SDS011;4244;48.684;9.028;2024-01-30T07:38:18;5.23;;;4.37;;
8413;SDS011;4244;48.684;9.028;2024-01-30T07:40:44;6.67;;;4.63;;
8413;SDS011;4244;48.684;9.028;2024-01-30T07:43:09;5.93;;;4.30;;
8413;SDS011;4244;48.684;9.028;2024-01-30T07:45:35;4.77;;;4.30;;
8413;SDS011;4244;48.684;9.028;2024-01-30T07:48:02;6.03;;;4.50;;
8413;SDS011;4244;48.684;9.028;2024-01-30T07:50:28;6.27;;;4.17;;
8413;SDS011;4244;48.684;9.028;2024-01-30T07:52:55;5.70;;;4.60;;
8413;SDS011;4244;48.684;9.028;2024-01-30T07:55:21;6.57;;;4.77;;
8413;SDS011;4244;48.684;9.028;2024-01-30T07:57:51;6.37;;;4.40;;
8413;SDS011;4244;48.684;9.028;2024-01-30T08:00:17;5.03;;;4.37;;
8413;SDS011;4244;48.684;9.028;2024-01-30T08:02:45;6.30;;;4.80;;
8413;SDS011;4244;48.684;9.028;2024-01-30T08:05:10;5.60;;;4.20;;
8413;SDS011;4244;48.684;9.028;2024-01-30T08:07:36;4.60;;;4.00;;
8413;SDS011;4244;48.684;9.028;2024-01-30T08:10:02;4.90;;;4.30;;
8413;SDS011;4244;48.684;9.028;2024-01-30T08:12:28;5.10;;;3.77;;
8413;SDS011;4244;48.684;9.028;2024-01-30T08:14:54;4.63;;;4.13;;
8413;SDS011;4244;48.684;9.028;2024-01-30T08:17:19;4.10;;;3.70;;
8413;SDS011;4244;48.684;9.028;2024-01-30T08:19:45;4.83;;;4.37;;
8413;SDS011;4244;48.684;9.028;2024-01-30T08:22:11;5.10;;;4.60;;
8413;SDS011;4244;48.684;9.028;2024-01-30T08:24:37;5.40;;;3.87;;
8413;SDS011;4244;48.684;9.028;2024-01-30T08:27:05;5.17;;;4.20;;
8413;SDS011;4244;48.684;9.028;2024-01-30T08:29:31;4.17;;;3.63;;
8413;SDS011;4244;48.684;9.028;2024-01-30T08:31:57;4.00;;;3.60;;
8413;SDS011;4244;48.684;9.028;2024-01-30T08:34:24;5.23;;;4.43;;
8413;SDS011;4244;48.684;9.028;2024-01-30T08:36:49;4.23;;;3.83;;
8413;SDS011;4244;48.684;9.028;2024-01-30T08:39:15;4.60;;;4.20;;
8413;SDS011;4244;48.684;9.028;2024-01-30T08:41:40;3.90;;;3.50;;
8413;SDS011;4244;48.684;9.028;2024-01-30T08:44:06;4.23;;;3.77;;
8413;SDS011;4244;48.684;9.028;2024-01-30T08:46:32;4.00;;;3.63;;
8413;SDS011;4244;48.684;9.028;2024-01-30T08:48:58;4.83;;;4.33;;
8413;SDS011;4244;48.684;9.028;2024-01-30T08:51:24;5.07;;;4.57;;
8413;SDS011;4244;48.684;9.028;2024-01-30T08:53:50;4.33;;;3.93;;
8413;SDS011;4244;48.684;9.028;2024-01-30T08:56:17;4.60;;;4.20;;
8413;SDS011;4244;48.684;9.028;2024-01-30T08:58:43;4.93;;;4.50;;
8413;SDS011;4244;48.684;9.028;2024-01-30T09:01:08;5.40;;;4.90;;
8413;SDS011;4244;48.684;9.028;2024-01-30T09:03:34;6.87;;;5.17;;
8413;SDS011;4244;48.684;9.028;2024-01-30T09:06:01;5.60;;;5.10;;
8413;SDS011;4244;48.684;9.028;2024-01-30T09:08:27;7.67;;;5.40;;
8413;SDS011;4244;48.684;9.028;2024-01-30T09:10:53;6.20;;;5.60;;
8413;SDS011;4244;48.684;9.028;2024-01-30T09:13:18;7.37;;;6.67;;
8413;SDS011;4244;48.684;9.028;2024-01-30T09:15:44;5.80;;;5.30;;
8413;SDS011;4244;48.684;9.028;2024-01-30T09:18:10;7.43;;;6.10;;
8413;SDS011;4244;48.684;9.028;2024-01-30T09:20:35;11.00;;;6.20;;
8413;SDS011;4244;48.684;9.028;2024-01-30T09:23:01;6.77;;;5.90;;
8413;SDS011;4244;48.684;9.028;2024-01-30T09:25:26;6.70;;;6.10;;
8413;SDS011;4244;48.684;9.028;2024-01-30T09:27:52;6.90;;;6.20;;
8413;SDS011;4244;48.684;9.028;2024-01-30T09:30:17;6.60;;;6.00;;
8413;SDS011;4244;48.684;9.028;2024-01-30T09:32:43;6.10;;;5.60;;
8413;SDS011;4244;48.684;9.028;2024-01-30T09:35:09;6.90;;;6.30;;
8413;SDS011;4244;48.684;9.028;2024-01-30T09:37:34;5.63;;;5.20;;
8413;SDS011;4244;48.684;9.028;2024-01-30T09:40:00;6.20;;;5.60;;
8413;SDS011;4244;48.684;9.028;2024-01-30T09:42:35;5.83;;;5.33;;
8413;SDS011;4244;48.684;9.028;2024-01-30T09:45:02;5.97;;;5.37;;
8413;SDS011;4244;48.684;9.028;2024-01-30T09:47:31;5.80;;;5.23;;
8413;SDS011;4244;48.684;9.028;2024-01-30T09:49:57;5.00;;;4.50;;
8413;SDS011;4244;48.684;9.028;2024-01-30T09:52:23;5.37;;;4.87;;
8413;SDS011;4244;48.684;9.028;2024-01-30T09:54:49;4.50;;;4.10;;
8413;SDS011;4244;48.684;9.028;2024-01-30T09:57:17;6.63;;;4.67;;
8413;SDS011;4244;48.684;9.028;2024-01-30T09:59:43;5.43;;;4.93;;
8413;SDS011;4244;48.684;9.028;2024-01-30T10:02:09;4.43;;;4.13;;
8413;SDS011;4244;48.684;9.028;2024-01-30T10:04:35;4.83;;;4.33;;
8413;SDS011;4244;48.684;9.028;2024-01-30T10:07:02;4.33;;;3.93;;
8413;SDS011;4244;48.684;9.028;2024-01-30T10:09:28;4.67;;;4.27;;
8413;SDS011;4244;48.684;9.028;2024-01-30T10:11:56;5.17;;;4.57;;
8413;SDS011;4244;48.684;9.028;2024-01-30T10:14:22;5.37;;;4.13;;
8413;SDS011;4244;48.684;9.028;2024-01-30T10:16:48;4.20;;;3.80;;
8413;SDS011;4244;48.684;9.028;2024-01-30T10:19:13;4.03;;;3.63;;
8413;SDS011;4244;48.684;9.028;2024-01-30T10:21:39;5.10;;;3.90;;
8413;SDS011;4244;48.684;9.028;2024-01-30T10:24:05;4.13;;;3.70;;
8413;SDS011;4244;48.684;9.028;2024-01-30T10:26:31;5.43;;;4.00;;
8413;SDS011;4244;48.684;9.028;2024-01-30T10:28:59;4.90;;;3.70;;
8413;SDS011;4244;48.684;9.028;2024-01-30T10:31:25;3.70;;;3.40;;
8413;SDS011;4244;48.684;9.028;2024-01-30T10:33:50;4.10;;;3.50;;
8413;SDS011;4244;48.684;9.028;2024-01-30T10:36:16;4.67;;;3.60;;
8413;SDS011;4244;48.684;9.028;2024-01-30T10:38:42;6.77;;;3.67;;
8413;SDS011;4244;48.684;9.028;2024-01-30T10:41:11;4.07;;;3.67;;
8413;SDS011;4244;48.684;9.028;2024-01-30T10:43:42;4.20;;;3.80;;
8413;SDS011;4244;48.684;9.028;2024-01-30T10:48:46;5.50;;;3.73;;
8413;SDS011;4244;48.684;9.028;2024-01-30T10:51:16;9.20;;;3.80;;
8413;SDS011;4244;48.684;9.028;2024-01-30T10:53:43;4.20;;;3.70;;
8413;SDS011;4244;48.684;9.028;2024-01-30T10:56:09;4.20;;;3.37;;
8413;SDS011;4244;48.684;9.028;2024-01-30T10:58:36;4.73;;;4.20;;
8413;SDS011;4244;48.684;9.028;2024-01-30T11:01:01;5.93;;;3.97;;
8413;SDS011;4244;48.684;9.028;2024-01-30T11:03:27;4.10;;;3.33;;
8413;SDS011;4244;48.684;9.028;2024-01-30T11:05:53;3.87;;;3.40;;
8413;SDS011;4244;48.684;9.028;2024-01-30T11:08:24;3.47;;;3.10;;
8413;SDS011;4244;48.684;9.028;2024-01-30T11:10:57;6.67;;;3.40;;
8413;SDS011;4244;48.684;9.028;2024-01-30T11:13:29;4.17;;;3.63;;
8413;SDS011;4244;48.684;9.028;2024-01-30T11:15:57;4.77;;;3.87;;
8413;SDS011;4244;48.684;9.028;2024-01-30T11:18:32;3.77;;;3.30;;
8413;SDS011;4244;48.684;9.028;2024-01-30T11:20:58;4.37;;;3.30;;
8413;SDS011;4244;48.684;9.028;2024-01-30T11:23:26;3.63;;;3.33;;
8413;SDS011;4244;48.684;9.028;2024-01-30T11:25:53;3.33;;;2.43;;
8413;SDS011;4244;48.684;9.028;2024-01-30T11:28:19;3.77;;;3.47;;
8413;SDS011;4244;48.684;9.028;2024-01-30T11:30:46;7.17;;;3.23;;
8413;SDS011;4244;48.684;9.028;2024-01-30T11:33:13;5.07;;;3.20;;
8413;SDS011;4244;48.684;9.028;2024-01-30T11:35:42;3.70;;;2.30;;
8413;SDS011;4244;48.684;9.028;2024-01-30T11:38:09;4.40;;;3.00;;
8413;SDS011;4244;48.684;9.028;2024-01-30T11:40:36;3.40;;;2.63;;
8413;SDS011;4244;48.684;9.028;2024-01-30T11:43:03;3.73;;;3.40;;
8413;SDS011;4244;48.684;9.028;2024-01-30T11:45:32;2.90;;;2.60;;
8413;SDS011;4244;48.684;9.028;2024-01-30T11:47:58;4.00;;;2.77;;
8413;SDS011;4244;48.684;9.028;2024-01-30T11:50:26;3.60;;;2.70;;
8413;SDS011;4244;48.684;9.028;2024-01-30T11:52:52;3.00;;;2.70;;
8413;SDS011;4244;48.684;9.028;2024-01-30T11:55:18;3.87;;;2.87;;
8413;SDS011;4244;48.684;9.028;2024-01-30T11:57:45;5.00;;;2.83;;
8413;SDS011;4244;48.684;9.028;2024-01-30T12:00:14;3.30;;;3.00;;
8413;SDS011;4244;48.684;9.028;2024-01-30T12:02:53;3.77;;;3.20;;
8413;SDS011;4244;48.684;9.028;2024-01-30T12:05:22;4.27;;;3.57;;
8413;SDS011;4244;48.684;9.028;2024-01-30T12:07:49;3.17;;;2.97;;
8413;SDS011;4244;48.684;9.028;2024-01-30T12:10:14;4.57;;;3.30;;
8413;SDS011;4244;48.684;9.028;2024-01-30T12:12:45;4.20;;;3.80;;
8413;SDS011;4244;48.684;9.028;2024-01-30T12:15:12;3.40;;;3.10;;
8413;SDS011;4244;48.684;9.028;2024-01-30T12:17:38;3.60;;;3.30;;
8413;SDS011;4244;48.684;9.028;2024-01-30T12:22:37;3.93;;;2.77;;
8413;SDS011;4244;48.684;9.028;2024-01-30T12:25:10;2.90;;;2.60;;
8413;SDS011;4244;48.684;9.028;2024-01-30T12:27:37;2.93;;;2.63;;
8413;SDS011;4244;48.684;9.028;2024-01-30T12:30:06;3.43;;;2.57;;
8413;SDS011;4244;48.684;9.028;2024-01-30T12:32:34;4.20;;;3.50;;
8413;SDS011;4244;48.684;9.028;2024-01-30T12:35:01;4.40;;;3.70;;
8413;SDS011;4244;48.684;9.028;2024-01-30T12:37:27;4.20;;;3.80;;
8413;SDS011;4244;48.684;9.028;2024-01-30T12:39:54;3.80;;;3.40;;
8413;SDS011;4244;48.684;9.028;2024-01-30T12:42:20;4.63;;;4.20;;
8413;SDS011;4244;48.684;9.028;2024-01-30T12:44:49;4.73;;;3.57;;
8413;SDS011;4244;48.684;9.028;2024-01-30T12:47:15;4.20;;;3.80;;
8413;SDS011;4244;48.684;9.028;2024-01-30T12:49:42;7.60;;;4.30;;
8413;SDS011;4244;48.684;9.028;2024-01-30T12:52:14;4.10;;;3.70;;
8413;SDS011;4244;48.684;9.028;2024-01-30T12:54:41;3.90;;;3.57;;
8413;SDS011;4244;48.684;9.028;2024-01-30T12:57:06;3.67;;;3.37;;
8413;SDS011;4244;48.684;9.028;2024-01-30T12:59:32;3.20;;;2.87;;
8413;SDS011;4244;48.684;9.028;2024-01-30T13:01:59;4.17;;;3.50;;
8413;SDS011;4244;48.684;9.028;2024-01-30T13:04:25;4.60;;;3.23;;
8413;SDS011;4244;48.684;9.028;2024-01-30T13:06:51;5.43;;;3.00;;
8413;SDS011;4244;48.684;9.028;2024-01-30T13:09:16;4.43;;;3.30;;
8413;SDS011;4244;48.684;9.028;2024-01-30T13:11:42;4.80;;;4.40;;
8413;SDS011;4244;48.684;9.028;2024-01-30T13:14:07;4.10;;;3.80;;
8413;SDS011;4244;48.684;9.028;2024-01-30T13:16:33;4.47;;;4.07;;
8413;SDS011;4244;48.684;9.028;2024-01-30T13:18:59;4.60;;;4.20;;
8413;SDS011;4244;48.684;9.028;2024-01-30T13:21:26;3.67;;;3.37;;
8413;SDS011;4244;48.684;9.028;2024-01-30T13:23:51;3.70;;;3.40;;
8413;SDS011;4244;48.684;9.028;2024-01-30T13:26:19;3.97;;;3.53;;
8413;SDS011;4244;48.684;9.028;2024-01-30T13:28:48;4.30;;;3.73;;
8413;SDS011;4244;48.684;9.028;2024-01-30T13:31:20;5.27;;;4.13;;
8413;SDS011;4244;48.684;9.028;2024-01-30T13:33:45;3.50;;;3.20;;
8413;SDS011;4244;48.684;9.028;2024-01-30T13:36:11;3.63;;;3.27;;
8413;SDS011;4244;48.684;9.028;2024-01-30T13:38:37;3.60;;;3.30;;
8413;SDS011;4244;48.684;9.028;2024-01-30T13:41:04;3.33;;;2.97;;
8413;SDS011;4244;48.684;9.028;2024-01-30T13:43:29;3.70;;;3.40;;
8413;SDS011;4244;48.684;9.028;2024-01-30T13:45:55;4.80;;;3.30;;
8413;SDS011;4244;48.684;9.028;2024-01-30T13:48:20;3.50;;;3.20;;
8413;SDS011;4244;48.684;9.028;2024-01-30T13:50:46;3.60;;;2.97;;
8413;SDS011;4244;48.684;9.028;2024-01-30T13:53:12;4.50;;;3.67;;
8413;SDS011;4244;48.684;9.028;2024-01-30T13:55:38;3.23;;;2.90;;
8413;SDS011;4244;48.684;9.028;2024-01-30T13:58:04;6.13;;;3.83;;
8413;SDS011;4244;48.684;9.028;2024-01-30T14:00:30;4.10;;;3.30;;
8413;SDS011;4244;48.684;9.028;2024-01-30T14:02:57;4.03;;;3.63;;
8413;SDS011;4244;48.684;9.028;2024-01-30T14:05:23;3.63;;;3.33;;
8413;SDS011;4244;48.684;9.028;2024-01-30T14:07:50;3.63;;;3.33;;
8413;SDS011;4244;48.684;9.028;2024-01-30T14:10:16;3.17;;;2.87;;
8413;SDS011;4244;48.684;9.028;2024-01-30T14:12:42;3.93;;;3.53;;
8413;SDS011;4244;48.684;9.028;2024-01-30T14:15:09;4.20;;;3.37;;
8413;SDS011;4244;48.684;9.028;2024-01-30T14:17:37;3.83;;;3.37;;
8413;SDS011;4244;48.684;9.028;2024-01-30T14:20:03;3.93;;;3.63;;
8413;SDS011;4244;48.684;9.028;2024-01-30T14:22:30;4.53;;;4.10;;
8413;SDS011;4244;48.684;9.028;2024-01-30T14:24:56;4.93;;;4.00;;
8413;SDS011;4244;48.684;9.028;2024-01-30T14:27:21;5.57;;;4.03;;
8413;SDS011;4244;48.684;9.028;2024-01-30T14:29:47;4.80;;;3.73;;
8413;SDS011;4244;48.684;9.028;2024-01-30T14:32:13;5.20;;;4.70;;
8413;SDS011;4244;48.684;9.028;2024-01-30T14:34:39;5.37;;;4.87;;
8413;SDS011;4244;48.684;9.028;2024-01-30T14:37:04;7.60;;;4.83;;
8413;SDS011;4244;48.684;9.028;2024-01-30T14:39:30;7.27;;;5.03;;
8413;SDS011;4244;48.684;9.028;2024-01-30T14:41:57;5.50;;;4.97;;
8413;SDS011;4244;48.684;9.028;2024-01-30T14:44:23;5.50;;;4.90;;
8413;SDS011;4244;48.684;9.028;2024-01-30T14:46:51;5.10;;;4.00;;
8413;SDS011;4244;48.684;9.028;2024-01-30T14:49:17;4.70;;;3.83;;
8413;SDS011;4244;48.684;9.028;2024-01-30T14:51:42;4.83;;;4.37;;
8413;SDS011;4244;48.684;9.028;2024-01-30T14:54:08;4.27;;;3.67;;
8413;SDS011;4244;48.684;9.028;2024-01-30T14:56:34;4.37;;;3.70;;
8413;SDS011;4244;48.684;9.028;2024-01-30T14:59:00;3.70;;;3.30;;
8413;SDS011;4244;48.684;9.028;2024-01-30T15:01:26;3.93;;;3.53;;
8413;SDS011;4244;48.684;9.028;2024-01-30T15:03:51;3.80;;;3.40;;
8413;SDS011;4244;48.684;9.028;2024-01-30T15:06:17;4.30;;;3.90;;
8413;SDS011;4244;48.684;9.028;2024-01-30T15:08:43;4.00;;;3.60;;
8413;SDS011;4244;48.684;9.028;2024-01-30T15:11:09;4.90;;;3.77;;
8413;SDS011;4244;48.684;9.028;2024-01-30T15:13:36;3.60;;;3.30;;